Aérodrome :
LOGIN :

S'inscrire | Disclaimer

   EN    FR    IT 

 










Légende :    VFR   VFR Marginal   IFR   IFR Intensif   IFR Très Intensif
Visi : 
Plafond : 
>= 8 km
>= 3000ft
5 à 8 km
1000 à 3000 ft
1500m à 5 km
500 à 1000 ft
800 à 1500m
200 à 500 ft
< 800m
< 200 ft
Symboles :   Orages  Brouillard  Fortes neiges  Fortes précipitations  Vent > 20 kt
SIGMETs :   Divers  Orages  Givrage  Turbulence  Onde Orograph.  Cendres Volcan.







- Altitude de l'aérodrome : 416 ft
- Code IATA : OVD


LEAS - Asturias

DERNIER METAR :
  • 181030Z 24005KT 220V280 7000 -RADZ FEW010 BKN052 14/12 Q1010 TEMPO 4000 RADZ

METARs EXPIRÉS :
  • 181000Z 23005KT 7000 -RADZ FEW010 BKN052 13/12 Q1010 TEMPO 4000 RADZ
  • 180930Z 25006KT 8000 -RADZ FEW010 BKN045 14/11 Q1010 TEMPO 4000 RADZ
  • 180900Z 29005KT 260V320 9000 -RA FEW010 BKN055 14/12 Q1010 TEMPO 4000 RADZ
  • 180830Z 29005KT 270V330 9000 -RA FEW010 BKN060 14/12 Q1010 TEMPO 4000 RADZ

TAF TAF LEAS
Valide du 18 à 09h jusqu'au 19 à 09h UTC


180800Z 1809/1909 14007KT 9999 SCT025 TX20/1813Z TN09/1906Z
TEMPO 1811/1818 30010KT
PROB40
TEMPO 1812/1818 3000 SHRA SCT025TCU
PROB30
TEMPO 1812/1818 3000 TSRA SCT025CB
Pas de NOTAMs connus pour ce terrain.
6 SIGMETs publiés pour la FIR Madrid (LECM) :
 
Orages noyés dans la masse
LECM SIGMET 9 VALID 180901/181100 LEVA
LECM MADRID FIR/UIR EMBD TS OBS AT 0901Z E OF LINE N43 W00130 - N3950 W00150 TOP FL340 MOV E NC=
Turbulence forte
LECM SIGMET 8 VALID 180900/181300 LEVA
LECM MADRID FIR/UIR SEV TURB FCST W OF LINE N4440 W006 - N4040 W00510 FL220/320 MOV E 10KT NC=
Orages noyés dans la masse
LECM SIGMET 13 VALID 181100/181400 LEVA
LECM MADRID FIR/UIR EMBD TS FCST E OF LINE N43 W00120 - N4040 W00130 TOP FL380 MOV NE NC=
Turbulence forte
LECM SIGMET 12 VALID 181200/181600 LEVA
LECM MADRID FIR/UIR SEV TURB FCST W OF LINE N4420 W004 - N4040 W00410 FL210/320 MOV E 10KT NC=
Orages noyés dans la masse
LECM SIGMET 11 VALID 181100/181400 LEVA
LECM MADRID FIR/UIR EMBD TS FCST E OF LINE N3930 W00220 - N3720 W00220 TOP FL380 MOV NE NC=
Orages noyés dans la masse
LECM SIGMET 10 VALID 181000/181200 LEVA
LECM MADRID FIR/UIR EMBD TS OBS AT 0945Z E OF LINE N3750 W003 - N3550 W00410 TOP FL400 MOV E NC=



MET'MAP, la Météo Aéronautique d'un coup d'oeil ! - Copyright ORBIFLY Décembre 2007 - Disclaimer

ORBIFLY MET'MAP TEAM :

Programmation & Développement : Alexandra Zaïnal
Conception & Développement : Baudouin d'Aumeries
Co-Programmation & Développement : Marc-Olivier Méhu
Soutien technique & logistique : Manuel Goepfert

Contact : metmap@orbifly.com




SOURCES & CREDITS :

   NOAA